Time;durP1;ratioP1;P1;durP2;ratioP2;P2;SDS_P1;SDS_P2;PMS_P1;PMS_P2;Temp;Humidity;BMP_temperature;BMP_pressure;BME280_temperature;BME280_humidity;BME280_pressure;Samples;Min_cycle;Max_cycle;Signal;HPM_P1;HPM_P2
2023/11/04 00:02:04;;;;;;;2.20;1.20;;;17.80;72.40;;;;;;5063432;28;20048;-78
2023/11/04 00:04:30;;;;;;;0.95;0.80;;;17.80;72.40;;;;;;5064422;28;20037;-78
2023/11/04 00:06:56;;;;;;;1.67;1.40;;;17.80;72.40;;;;;;5050186;28;20505;-78
2023/11/04 00:09:22;;;;;;;1.27;1.10;;;17.80;72.40;;;;;;5095965;28;20090;-79
2023/11/04 00:11:47;;;;;;;1.25;1.15;;;17.80;72.60;;;;;;5063365;28;20843;-79
2023/11/04 00:14:13;;;;;;;1.20;1.13;;;17.80;72.70;;;;;;5094892;28;20047;-79
2023/11/04 00:16:39;;;;;;;1.15;1.00;;;17.80;72.40;;;;;;5032119;28;20046;-79
2023/11/04 00:19:04;;;;;;;0.95;0.90;;;17.80;72.50;;;;;;5046192;28;20056;-79
2023/11/04 00:21:30;;;;;;;1.58;0.98;;;17.80;72.70;;;;;;5083152;28;20048;-79
2023/11/04 00:23:55;;;;;;;1.48;1.15;;;17.80;72.60;;;;;;5033468;28;20542;-79
2023/11/04 00:26:21;;;;;;;1.13;0.90;;;17.80;73.20;;;;;;5066127;28;20045;-79
2023/11/04 00:28:46;;;;;;;1.15;0.70;;;17.80;72.10;;;;;;5065446;28;20040;-79
2023/11/04 00:31:12;;;;;;;0.60;0.60;;;17.80;72.20;;;;;;5063590;28;20545;-78
2023/11/04 00:33:38;;;;;;;1.25;1.10;;;17.80;72.40;;;;;;5063186;28;20051;-79
2023/11/04 00:36:04;;;;;;;1.20;0.70;;;17.80;72.30;;;;;;5062264;28;20040;-78
2023/11/04 00:38:29;;;;;;;1.95;1.42;;;17.80;72.60;;;;;;5062844;28;20085;-79
2023/11/04 00:40:55;;;;;;;1.05;0.82;;;17.80;72.40;;;;;;5031579;28;22409;-79
2023/11/04 00:43:21;;;;;;;0.82;0.82;;;17.80;72.40;;;;;;5064294;28;20056;-79
2023/11/04 00:45:46;;;;;;;0.65;0.65;;;17.80;72.30;;;;;;5048947;28;20128;-78
2023/11/04 00:48:12;;;;;;;2.40;0.95;;;17.80;72.40;;;;;;5062915;28;20040;-79
2023/11/04 00:50:38;;;;;;;1.40;0.73;;;17.80;72.40;;;;;;5033159;28;20131;-79
2023/11/04 00:53:04;;;;;;;0.77;0.70;;;17.80;72.50;;;;;;5046120;28;20048;-78
2023/11/04 00:55:30;;;;;;;0.93;0.80;;;17.80;72.30;;;;;;5065912;28;20049;-79
2023/11/04 00:57:55;;;;;;;0.93;0.60;;;17.80;72.50;;;;;;5048956;28;20097;-79
2023/11/04 01:00:25;;;;;;;1.15;0.73;;;17.80;72.50;;;;;;5065328;28;20057;-79
2023/11/04 01:02:55;;;;;;;0.80;0.77;;;17.70;72.30;;;;;;5048152;28;20040;-79
2023/11/04 01:05:22;;;;;;;1.00;0.82;;;17.70;72.30;;;;;;5059410;28;20079;-79
2023/11/04 01:07:48;;;;;;;1.08;0.93;;;17.70;72.40;;;;;;5065822;28;20417;-79
2023/11/04 01:10:14;;;;;;;1.00;0.82;;;17.70;72.40;;;;;;5095512;28;20569;-79
2023/11/04 01:12:41;;;;;;;1.52;1.10;;;17.70;72.30;;;;;;5065916;28;20128;-80
2023/11/04 01:15:07;;;;;;;2.67;0.95;;;17.70;72.30;;;;;;5062705;28;20108;-79
2023/11/04 01:17:33;;;;;;;1.13;0.90;;;17.70;72.30;;;;;;5078662;28;20040;-80
2023/11/04 01:19:58;;;;;;;1.15;0.90;;;17.70;72.30;;;;;;5048449;28;20037;-80
2023/11/04 01:22:24;;;;;;;1.30;0.70;;;17.70;72.30;;;;;;5061297;28;20049;-79
2023/11/04 01:24:50;;;;;;;1.23;0.90;;;17.70;72.30;;;;;;5063790;28;20518;-79
2023/11/04 01:27:15;;;;;;;1.00;0.90;;;17.70;72.60;;;;;;5064373;28;20286;-79
2023/11/04 01:29:41;;;;;;;1.15;0.80;;;17.70;72.60;;;;;;5062995;28;20052;-80
2023/11/04 01:32:06;;;;;;;1.15;1.02;;;17.70;72.30;;;;;;5062445;28;20044;-79
2023/11/04 01:34:32;;;;;;;1.85;0.82;;;17.70;72.60;;;;;;5041234;28;20055;-79
2023/11/04 01:36:58;;;;;;;1.58;0.80;;;17.70;72.60;;;;;;5058758;28;20041;-80
2023/11/04 01:39:23;;;;;;;0.80;0.80;;;17.70;72.60;;;;;;5044933;28;20044;-80
2023/11/04 01:41:49;;;;;;;2.42;0.90;;;17.70;72.80;;;;;;5063992;28;20510;-79
2023/11/04 01:44:15;;;;;;;1.10;1.00;;;17.70;72.40;;;;;;5061956;28;20033;-79
2023/11/04 01:46:41;;;;;;;1.58;1.05;;;17.70;72.50;;;;;;5046838;28;20131;-79
2023/11/04 01:49:07;;;;;;;1.13;0.82;;;17.70;72.40;;;;;;5046098;28;20061;-78
2023/11/04 01:51:33;;;;;;;1.38;0.80;;;17.70;72.40;;;;;;5069815;28;20497;-79
2023/11/04 01:53:59;;;;;;;1.00;0.88;;;17.70;72.30;;;;;;5047251;28;20028;-78
2023/11/04 01:56:27;;;;;;;1.48;1.10;;;17.70;72.50;;;;;;5046583;28;20045;-78
2023/11/04 01:58:54;;;;;;;1.58;0.98;;;17.70;72.40;;;;;;5061285;28;20052;-79
2023/11/04 02:01:19;;;;;;;1.10;0.70;;;17.70;72.50;;;;;;5060854;28;20605;-78
2023/11/04 02:03:45;;;;;;;2.13;1.25;;;17.70;72.30;;;;;;5077961;28;20119;-79
2023/11/04 02:06:11;;;;;;;0.82;0.60;;;17.70;72.30;;;;;;5065340;28;20547;-78
2023/11/04 02:08:36;;;;;;;2.08;0.82;;;17.70;72.30;;;;;;5064772;28;20453;-78
2023/11/04 02:11:03;;;;;;;0.75;0.60;;;17.70;72.20;;;;;;5045886;28;20028;-79
2023/11/04 02:13:29;;;;;;;1.52;0.98;;;17.70;72.30;;;;;;5064447;28;20049;-78
2023/11/04 02:15:55;;;;;;;0.80;0.63;;;17.70;72.40;;;;;;5062345;28;20427;-79
2023/11/04 02:18:20;;;;;;;1.10;1.00;;;17.70;72.50;;;;;;5061518;28;20056;-78
2023/11/04 02:20:46;;;;;;;0.85;0.73;;;17.70;72.30;;;;;;5063061;28;20037;-79
2023/11/04 02:23:13;;;;;;;0.52;0.50;;;17.70;72.30;;;;;;5059779;28;20040;-79
2023/11/04 02:25:39;;;;;;;1.20;0.73;;;17.70;72.30;;;;;;5059661;28;20410;-79
2023/11/04 02:28:05;;;;;;;1.10;0.63;;;17.70;72.40;;;;;;5047924;28;20037;-79
2023/11/04 02:30:31;;;;;;;1.10;0.85;;;17.70;72.20;;;;;;5047039;28;20037;-79
2023/11/04 02:32:57;;;;;;;1.67;0.85;;;17.70;72.30;;;;;;5060800;28;21318;-80
2023/11/04 02:35:23;;;;;;;1.73;1.05;;;17.70;72.30;;;;;;5041088;28;20119;-79
2023/11/04 02:37:50;;;;;;;0.50;0.50;;;17.70;72.30;;;;;;5076923;28;20402;-80
2023/11/04 02:40:15;;;;;;;0.73;0.60;;;17.70;72.30;;;;;;5060051;28;20474;-78
2023/11/04 02:42:41;;;;;;;1.10;0.95;;;17.70;72.40;;;;;;5047297;28;20509;-79
2023/11/04 02:45:07;;;;;;;1.40;0.82;;;17.70;72.30;;;;;;5062783;28;20040;-79
2023/11/04 02:47:32;;;;;;;1.38;1.15;;;17.70;72.30;;;;;;5043125;28;20449;-78
2023/11/04 02:49:58;;;;;;;1.55;0.80;;;17.70;72.30;;;;;;5031016;28;20419;-79
2023/11/04 02:52:24;;;;;;;0.65;0.52;;;17.70;72.40;;;;;;5060107;28;20032;-79
2023/11/04 02:54:49;;;;;;;1.55;0.93;;;17.70;72.30;;;;;;5062090;28;20032;-79
2023/11/04 02:57:15;;;;;;;0.90;0.63;;;17.70;72.30;;;;;;5058405;28;20059;-79
2023/11/04 02:59:41;;;;;;;1.80;0.80;;;17.70;72.30;;;;;;5045305;28;20087;-79
2023/11/04 03:02:06;;;;;;;1.20;0.70;;;17.70;72.30;;;;;;5059644;28;20032;-80
2023/11/04 03:04:32;;;;;;;0.70;0.50;;;17.70;72.30;;;;;;5060845;28;20029;-79
2023/11/04 03:06:58;;;;;;;0.93;0.70;;;17.70;73.10;;;;;;5062468;28;20035;-79
2023/11/04 03:09:23;;;;;;;0.60;0.50;;;17.70;72.30;;;;;;5062951;28;20030;-79
2023/11/04 03:11:52;;;;;;;0.80;0.60;;;17.70;72.30;;;;;;5062838;28;20041;-80
2023/11/04 03:14:17;;;;;;;0.65;0.50;;;17.70;72.40;;;;;;5030207;28;20037;-79
2023/11/04 03:16:43;;;;;;;0.68;0.57;;;17.70;72.60;;;;;;5063507;28;20406;-79
2023/11/04 03:19:09;;;;;;;0.60;0.55;;;17.70;72.80;;;;;;5060761;28;20695;-80
2023/11/04 03:21:34;;;;;;;1.02;0.77;;;17.70;72.70;;;;;;5063048;28;20095;-79
2023/11/04 03:24:00;;;;;;;1.20;0.68;;;17.70;73.50;;;;;;5059821;28;20032;-79
2023/11/04 03:26:26;;;;;;;0.68;0.50;;;17.70;73.40;;;;;;5044850;28;20050;-78
2023/11/04 03:28:51;;;;;;;0.82;0.68;;;17.70;72.60;;;;;;5057989;28;20048;-78
2023/11/04 03:31:17;;;;;;;1.00;0.60;;;17.70;72.90;;;;;;5060288;28;20198;-78
2023/11/04 03:33:42;;;;;;;0.88;0.60;;;17.70;72.90;;;;;;5066864;28;20051;-79
2023/11/04 03:36:09;;;;;;;0.60;0.50;;;17.70;73.10;;;;;;5061216;28;20055;-79
2023/11/04 03:38:35;;;;;;;0.60;0.50;;;17.70;73.00;;;;;;5060651;28;20044;-79
2023/11/04 03:41:00;;;;;;;1.17;0.50;;;17.70;73.00;;;;;;5060302;28;20052;-79
2023/11/04 03:43:26;;;;;;;0.50;0.50;;;17.70;72.90;;;;;;5060018;28;20040;-78
2023/11/04 03:45:52;;;;;;;0.70;0.52;;;17.70;73.00;;;;;;5062191;28;20077;-79
2023/11/04 03:48:17;;;;;;;0.50;0.50;;;17.70;73.00;;;;;;5061530;28;20053;-78
2023/11/04 03:50:43;;;;;;;0.45;0.45;;;17.80;73.10;;;;;;5062372;28;20524;-79
2023/11/04 03:53:08;;;;;;;0.43;0.40;;;17.80;73.00;;;;;;5059966;28;20598;-78
2023/11/04 03:55:35;;;;;;;0.95;0.55;;;17.80;73.10;;;;;;5091683;28;20056;-78
2023/11/04 03:58:00;;;;;;;0.77;0.60;;;17.80;73.10;;;;;;5059954;28;20325;-79
2023/11/04 04:00:27;;;;;;;0.60;0.30;;;17.80;73.30;;;;;;5092297;28;20037;-79
2023/11/04 04:02:53;;;;;;;0.45;0.40;;;17.70;73.00;;;;;;5058682;28;20044;-78
2023/11/04 04:05:18;;;;;;;0.85;0.60;;;17.70;73.10;;;;;;5044936;28;20048;-79
2023/11/04 04:07:44;;;;;;;0.38;0.32;;;17.80;73.20;;;;;;5061139;28;20040;-78
2023/11/04 04:10:10;;;;;;;0.52;0.50;;;17.80;73.00;;;;;;5060515;28;20044;-79
2023/11/04 04:12:35;;;;;;;0.95;0.40;;;17.80;73.00;;;;;;5061631;28;20115;-78
2023/11/04 04:15:01;;;;;;;0.40;0.40;;;17.70;73.00;;;;;;5061582;28;20211;-80
2023/11/04 04:17:27;;;;;;;0.82;0.47;;;17.70;72.90;;;;;;5059115;28;20506;-78
2023/11/04 04:19:52;;;;;;;0.50;0.50;;;17.70;73.20;;;;;;5065361;28;20398;-79
2023/11/04 04:22:18;;;;;;;0.35;0.35;;;17.70;73.30;;;;;;5059695;28;20416;-78
2023/11/04 04:24:43;;;;;;;0.85;0.50;;;17.70;73.40;;;;;;5068409;28;20049;-79
2023/11/04 04:27:09;;;;;;;0.50;0.25;;;17.70;73.30;;;;;;5064522;28;20553;-79
2023/11/04 04:29:34;;;;;;;0.43;0.40;;;17.70;73.40;;;;;;5063123;28;20470;-79
2023/11/04 04:32:00;;;;;;;0.40;0.40;;;17.70;73.40;;;;;;5044312;28;20040;-79
2023/11/04 04:34:26;;;;;;;0.40;0.30;;;17.70;73.30;;;;;;5059854;28;20036;-78
2023/11/04 04:36:52;;;;;;;0.52;0.30;;;17.70;73.30;;;;;;5033053;28;20061;-79
2023/11/04 04:39:18;;;;;;;0.45;0.45;;;17.70;73.40;;;;;;5064330;28;20108;-79
2023/11/04 04:41:44;;;;;;;0.40;0.40;;;17.70;73.40;;;;;;5051282;28;20040;-79
2023/11/04 04:44:10;;;;;;;0.30;0.30;;;17.70;73.40;;;;;;5048434;28;20223;-79
2023/11/04 04:46:41;;;;;;;0.40;0.40;;;17.70;73.40;;;;;;5065573;28;20933;-78
2023/11/04 04:49:07;;;;;;;0.30;0.30;;;17.60;73.40;;;;;;5063681;28;20045;-78
2023/11/04 04:51:33;;;;;;;0.88;0.40;;;17.70;73.40;;;;;;5079028;28;20230;-79
2023/11/04 04:53:58;;;;;;;0.60;0.40;;;17.70;73.50;;;;;;5060883;28;20136;-79
2023/11/04 04:56:24;;;;;;;0.20;0.20;;;17.70;73.30;;;;;;5050323;28;20472;-78
2023/11/04 04:58:49;;;;;;;0.30;0.30;;;17.70;73.10;;;;;;5044403;28;20127;-79
2023/11/04 05:01:19;;;;;;;0.38;0.35;;;17.60;73.30;;;;;;5063002;28;20072;-79
2023/11/04 05:03:45;;;;;;;0.30;0.30;;;17.60;73.40;;;;;;5075208;28;20090;-79
2023/11/04 05:06:10;;;;;;;0.28;0.20;;;17.60;73.30;;;;;;5068330;28;20514;-79
2023/11/04 05:08:36;;;;;;;0.30;0.30;;;17.70;73.40;;;;;;5065943;28;20090;-78
2023/11/04 05:11:02;;;;;;;1.05;0.40;;;17.70;73.40;;;;;;5047424;28;20410;-79
2023/11/04 05:13:28;;;;;;;0.65;0.55;;;17.60;73.40;;;;;;5066438;28;20509;-78
2023/11/04 05:15:54;;;;;;;0.30;0.30;;;17.70;73.30;;;;;;5043919;28;20376;-79
2023/11/04 05:18:20;;;;;;;0.43;0.43;;;17.70;73.30;;;;;;5063169;28;20116;-79
2023/11/04 05:20:46;;;;;;;0.50;0.20;;;17.60;73.30;;;;;;5062418;28;20573;-79
2023/11/04 05:23:11;;;;;;;0.30;0.30;;;17.70;73.20;;;;;;5062670;28;20049;-80
2023/11/04 05:25:37;;;;;;;0.73;0.38;;;17.70;73.30;;;;;;5065056;28;20105;-80
2023/11/04 05:28:03;;;;;;;0.30;0.30;;;17.60;73.40;;;;;;5062008;28;20123;-79
2023/11/04 05:30:29;;;;;;;0.20;0.20;;;17.60;73.50;;;;;;5061592;28;20124;-79
2023/11/04 05:32:56;;;;;;;0.43;0.43;;;17.60;73.20;;;;;;5062359;28;20057;-80
2023/11/04 05:35:24;;;;;;;0.30;0.30;;;17.60;73.30;;;;;;5062178;28;20098;-80
2023/11/04 05:37:50;;;;;;;0.30;0.30;;;17.60;73.40;;;;;;5059859;28;20120;-80
2023/11/04 05:40:16;;;;;;;0.20;0.20;;;17.60;73.40;;;;;;5078024;28;20041;-80
2023/11/04 05:42:41;;;;;;;0.30;0.30;;;17.60;73.40;;;;;;5048340;28;20055;-79
2023/11/04 05:45:07;;;;;;;0.20;0.20;;;17.60;73.30;;;;;;5064171;28;20044;-81
2023/11/04 05:47:33;;;;;;;0.10;0.10;;;17.60;73.30;;;;;;5046762;28;20132;-80
2023/11/04 05:50:00;;;;;;;0.20;0.20;;;17.60;73.40;;;;;;5064766;28;20147;-80
2023/11/04 05:52:25;;;;;;;0.32;0.30;;;17.60;73.20;;;;;;5061994;28;20048;-80
2023/11/04 05:54:52;;;;;;;0.65;0.40;;;17.60;73.30;;;;;;5064065;28;20079;-80
2023/11/04 05:57:18;;;;;;;0.20;0.20;;;17.60;73.40;;;;;;5063800;28;20414;-80
2023/11/04 05:59:44;;;;;;;0.20;0.20;;;17.60;73.40;;;;;;5045312;28;20169;-79
2023/11/04 06:02:10;;;;;;;0.43;0.20;;;17.60;73.50;;;;;;5063855;28;20048;-81
2023/11/04 06:04:36;;;;;;;0.30;0.25;;;17.60;73.20;;;;;;5060694;28;20470;-80
2023/11/04 06:07:01;;;;;;;0.17;0.17;;;17.60;73.40;;;;;;5062261;28;20063;-76
2023/11/04 06:09:27;;;;;;;0.22;0.10;;;17.60;73.20;;;;;;5064355;28;20044;-76
2023/11/04 06:11:54;;;;;;;0.10;0.10;;;17.60;73.20;;;;;;5058616;28;20036;-76
2023/11/04 06:14:20;;;;;;;0.30;0.17;;;17.60;74.00;;;;;;5061948;28;20048;-76
2023/11/04 06:16:45;;;;;;;0.20;0.20;;;17.60;73.20;;;;;;5059173;28;20047;-76
2023/11/04 06:19:11;;;;;;;0.25;0.25;;;17.60;73.20;;;;;;5061812;28;20040;-76
2023/11/04 06:21:36;;;;;;;0.30;0.20;;;17.60;73.30;;;;;;5061768;28;20482;-76
2023/11/04 06:24:02;;;;;;;0.20;0.20;;;17.60;73.30;;;;;;5061305;28;20052;-76
2023/11/04 06:26:27;;;;;;;0.20;0.20;;;17.60;73.30;;;;;;5061701;28;20097;-76
2023/11/04 06:28:53;;;;;;;0.30;0.30;;;17.60;73.40;;;;;;5059975;28;20052;-77
2023/11/04 06:31:22;;;;;;;0.40;0.20;;;17.60;73.30;;;;;;5093364;28;20513;-76
2023/11/04 06:33:51;;;;;;;0.30;0.20;;;17.60;73.40;;;;;;5061198;28;20040;-76
2023/11/04 06:36:16;;;;;;;0.17;0.13;;;17.60;74.10;;;;;;5065414;28;20087;-76
2023/11/04 06:38:42;;;;;;;0.32;0.25;;;17.60;73.30;;;;;;5062373;28;20506;-76
2023/11/04 06:41:16;;;;;;;0.10;0.10;;;17.60;73.30;;;;;;5059859;28;20407;-76
2023/11/04 06:43:44;;;;;;;;;;;17.60;73.30;;;;;;5073263;28;20056;-76
2023/11/04 06:46:10;;;;;;;0.10;0.10;;;17.60;73.30;;;;;;5046417;28;20007;-76
2023/11/04 06:48:36;;;;;;;0.25;0.22;;;17.60;73.30;;;;;;5061995;28;20481;-76
2023/11/04 06:51:01;;;;;;;0.20;0.20;;;17.50;74.10;;;;;;5061248;28;20474;-76
2023/11/04 06:53:27;;;;;;;0.22;0.10;;;17.50;73.30;;;;;;5059881;28;21078;-76
2023/11/04 06:55:55;;;;;;;0.30;0.20;;;17.60;73.40;;;;;;5045921;28;20032;-76
2023/11/04 06:58:21;;;;;;;0.17;0.17;;;17.60;73.30;;;;;;5059278;28;20453;-76
2023/11/04 07:00:47;;;;;;;0.35;0.20;;;17.60;73.40;;;;;;5045320;28;20037;-76
2023/11/04 07:03:12;;;;;;;0.20;0.20;;;17.60;73.40;;;;;;5071057;28;20048;-76
2023/11/04 07:05:38;;;;;;;0.15;0.15;;;17.60;73.40;;;;;;5060631;28;20041;-76
2023/11/04 07:08:04;;;;;;;0.40;0.20;;;17.60;73.40;;;;;;5077869;28;20075;-76
2023/11/04 07:10:30;;;;;;;0.65;0.20;;;17.60;73.40;;;;;;5060916;28;20115;-76
2023/11/04 07:12:56;;;;;;;0.28;0.20;;;17.60;73.30;;;;;;5063560;28;20124;-76
2023/11/04 07:15:22;;;;;;;0.22;0.22;;;17.60;73.40;;;;;;5062783;28;20059;-76
2023/11/04 07:17:47;;;;;;;0.10;0.10;;;17.50;73.20;;;;;;5059321;28;20430;-76
2023/11/04 07:20:13;;;;;;;0.52;0.32;;;17.60;73.30;;;;;;5061445;28;20040;-76
2023/11/04 07:22:39;;;;;;;0.30;0.20;;;17.50;73.20;;;;;;5091474;28;20082;-76
2023/11/04 07:25:05;;;;;;;0.20;0.20;;;17.60;73.30;;;;;;5062904;28;20079;-75
2023/11/04 07:27:30;;;;;;;0.10;0.10;;;17.60;73.30;;;;;;5065060;28;20091;-75
2023/11/04 07:29:56;;;;;;;0.40;0.20;;;17.60;73.10;;;;;;5062564;28;20094;-74
2023/11/04 07:32:22;;;;;;;0.30;0.20;;;17.60;73.40;;;;;;5058201;28;20584;-75
2023/11/04 07:34:48;;;;;;;0.65;0.40;;;17.60;73.10;;;;;;5057134;28;20063;-75
2023/11/04 07:37:13;;;;;;;0.30;0.20;;;17.60;73.10;;;;;;5058579;28;20414;-75
2023/11/04 07:39:40;;;;;;;1.63;0.35;;;17.70;73.10;;;;;;5064172;28;20641;-75
2023/11/04 07:42:10;;;;;;;0.60;0.30;;;17.60;73.20;;;;;;5061953;28;21320;-76
2023/11/04 07:44:38;;;;;;;0.60;0.30;;;17.70;73.10;;;;;;5061231;28;20063;-75
2023/11/04 07:47:03;;;;;;;0.50;0.40;;;17.70;73.80;;;;;;5058125;28;20414;-75
2023/11/04 07:49:29;;;;;;;1.63;0.38;;;17.70;73.70;;;;;;5057583;28;20587;-75
2023/11/04 07:51:54;;;;;;;1.75;0.35;;;17.60;73.40;;;;;;5060304;28;20595;-76
2023/11/04 07:54:20;;;;;;;0.68;0.40;;;17.70;73.60;;;;;;5063166;28;20402;-75
2023/11/04 07:56:46;;;;;;;0.20;0.20;;;17.60;73.90;;;;;;5063976;28;20075;-75
2023/11/04 07:59:12;;;;;;;0.50;0.40;;;17.60;73.80;;;;;;5064722;28;20053;-75
2023/11/04 08:01:38;;;;;;;1.27;0.50;;;17.60;74.10;;;;;;5062824;28;20086;-75
2023/11/04 08:04:04;;;;;;;0.70;0.40;;;17.60;73.70;;;;;;5064223;28;20094;-76
2023/11/04 08:06:30;;;;;;;1.45;0.40;;;17.70;73.70;;;;;;5094929;28;20028;-74
2023/11/04 08:08:55;;;;;;;0.50;0.40;;;17.70;73.80;;;;;;5063414;28;20409;-75
2023/11/04 08:11:21;;;;;;;0.95;0.40;;;17.70;73.70;;;;;;5064148;28;20409;-75
2023/11/04 08:13:47;;;;;;;0.40;0.38;;;17.70;73.60;;;;;;5045249;28;20056;-74
2023/11/04 08:16:13;;;;;;;1.40;0.60;;;17.70;74.20;;;;;;5063037;28;20622;-74
2023/11/04 08:18:40;;;;;;;1.08;0.80;;;17.70;74.20;;;;;;5067198;28;20059;-74
2023/11/04 08:21:06;;;;;;;0.93;0.43;;;17.70;74.60;;;;;;5064552;28;20071;-76
2023/11/04 08:23:32;;;;;;;1.40;0.88;;;17.70;74.60;;;;;;5065128;28;20060;-75
2023/11/04 08:25:57;;;;;;;0.90;0.52;;;17.70;74.20;;;;;;5065176;28;20094;-75
2023/11/04 08:28:23;;;;;;;1.83;0.90;;;17.70;75.30;;;;;;5076509;28;20082;-75
2023/11/04 08:30:51;;;;;;;0.73;0.60;;;17.80;75.30;;;;;;5064723;28;20564;-75
2023/11/04 08:33:17;;;;;;;0.50;0.50;;;17.80;75.70;;;;;;5063111;28;20089;-76
2023/11/04 08:35:43;;;;;;;0.60;0.50;;;17.80;75.50;;;;;;5064792;28;20036;-75
2023/11/04 08:38:08;;;;;;;0.68;0.47;;;17.80;75.70;;;;;;5063294;28;20055;-75
2023/11/04 08:40:34;;;;;;;2.00;0.70;;;17.90;76.40;;;;;;5064151;28;20506;-75
2023/11/04 08:43:00;;;;;;;5.10;0.88;;;17.90;76.30;;;;;;5065679;28;20049;-76
2023/11/04 08:45:25;;;;;;;1.77;0.70;;;17.90;76.70;;;;;;5090179;28;20050;-75
2023/11/04 08:47:51;;;;;;;1.20;0.77;;;17.90;76.80;;;;;;5063787;28;20498;-73
2023/11/04 08:50:16;;;;;;;4.85;0.90;;;17.90;77.00;;;;;;5063686;28;20048;-73
2023/11/04 08:52:42;;;;;;;3.08;0.88;;;17.90;77.10;;;;;;5062200;28;20486;-74
2023/11/04 08:55:10;;;;;;;2.15;0.70;;;17.90;77.10;;;;;;5060955;28;20051;-74
2023/11/04 08:57:35;;;;;;;4.00;0.82;;;18.00;77.00;;;;;;5065650;28;20483;-73
2023/11/04 09:00:05;;;;;;;2.35;0.80;;;18.00;77.10;;;;;;5064313;28;20040;-74
2023/11/04 09:02:31;;;;;;;2.03;0.80;;;18.00;77.10;;;;;;5066875;28;20109;-75
2023/11/04 09:04:56;;;;;;;4.72;0.82;;;17.90;77.00;;;;;;5066664;28;20040;-75
2023/11/04 09:07:23;;;;;;;2.95;0.57;;;17.90;76.90;;;;;;5062594;28;20514;-75
2023/11/04 09:09:48;;;;;;;1.10;0.60;;;17.90;76.80;;;;;;5064751;28;20045;-75
2023/11/04 09:12:14;;;;;;;1.35;0.60;;;17.90;77.00;;;;;;5094870;28;20579;-75
2023/11/04 09:14:39;;;;;;;2.90;0.98;;;17.90;76.90;;;;;;5063738;28;20047;-74
2023/11/04 09:17:05;;;;;;;1.25;0.68;;;17.90;76.70;;;;;;5065586;28;20036;-75
2023/11/04 09:19:31;;;;;;;0.82;0.70;;;18.00;76.60;;;;;;5064314;28;20044;-75
2023/11/04 09:21:56;;;;;;;1.65;0.70;;;17.90;76.50;;;;;;5064245;28;20045;-75
2023/11/04 09:24:22;;;;;;;1.42;0.43;;;17.90;76.50;;;;;;5065884;28;20048;-74
2023/11/04 09:26:47;;;;;;;1.27;0.93;;;17.90;76.60;;;;;;5064354;28;20039;-74
2023/11/04 09:29:13;;;;;;;2.72;0.90;;;17.90;76.60;;;;;;5064837;28;20506;-75
2023/11/04 09:31:39;;;;;;;2.13;0.80;;;17.90;76.70;;;;;;5061452;28;20051;-74
2023/11/04 09:34:07;;;;;;;1.20;0.73;;;17.90;76.70;;;;;;5063043;28;20101;-74
2023/11/04 09:36:32;;;;;;;1.95;0.68;;;18.00;76.80;;;;;;5064388;28;20504;-74
2023/11/04 09:38:58;;;;;;;0.70;0.70;;;18.00;76.30;;;;;;5063741;28;20509;-74
2023/11/04 09:41:24;;;;;;;1.23;0.50;;;18.00;76.30;;;;;;5061854;28;20059;-74
2023/11/04 09:43:50;;;;;;;0.60;0.50;;;18.00;76.30;;;;;;5064072;28;20123;-75
2023/11/04 09:46:15;;;;;;;0.90;0.70;;;18.00;76.30;;;;;;5060281;28;20452;-74
2023/11/04 09:48:41;;;;;;;1.63;0.93;;;18.00;76.40;;;;;;5064616;28;20060;-75
2023/11/04 09:51:11;;;;;;;1.20;0.43;;;18.00;76.30;;;;;;5063013;28;20036;-75
2023/11/04 09:53:38;;;;;;;0.82;0.45;;;18.00;76.00;;;;;;5062188;28;20045;-76
2023/11/04 09:56:06;;;;;;;1.73;0.80;;;18.10;75.60;;;;;;5064601;28;20041;-73
2023/11/04 09:58:31;;;;;;;0.60;0.60;;;18.10;75.80;;;;;;5063712;28;20086;-74
2023/11/04 10:00:58;;;;;;;1.65;0.50;;;18.10;75.90;;;;;;5060015;28;20032;-75
2023/11/04 10:03:24;;;;;;;3.00;1.00;;;18.10;75.30;;;;;;5061053;28;20498;-74
2023/11/04 10:05:50;;;;;;;1.48;0.80;;;18.10;75.40;;;;;;5063288;28;20040;-74
2023/11/04 10:08:15;;;;;;;1.45;0.85;;;18.10;75.50;;;;;;5061402;28;20016;-74
2023/11/04 10:10:41;;;;;;;1.30;0.60;;;18.10;75.40;;;;;;5065487;28;20503;-74
2023/11/04 10:13:07;;;;;;;1.20;0.70;;;18.10;76.00;;;;;;4705422;28;9999656;-74
2023/11/04 10:15:33;;;;;;;1.08;0.57;;;18.00;75.60;;;;;;5091900;27;21103;-74
2023/11/04 10:18:00;;;;;;;1.15;0.90;;;18.00;76.00;;;;;;5058194;28;20056;-73
2023/11/04 10:20:26;;;;;;;2.55;0.88;;;18.00;75.90;;;;;;5065595;28;20037;-73
2023/11/04 10:22:53;;;;;;;1.23;0.60;;;18.00;75.50;;;;;;5062934;28;20044;-73
2023/11/04 10:25:19;;;;;;;0.88;0.60;;;18.00;76.00;;;;;;5060532;28;20037;-74
2023/11/04 10:27:45;;;;;;;1.60;0.63;;;18.00;75.90;;;;;;5040048;28;20552;-74
2023/11/04 10:30:11;;;;;;;0.85;0.60;;;18.00;75.40;;;;;;5061293;28;20028;-73
2023/11/04 10:32:37;;;;;;;1.92;0.77;;;18.00;75.20;;;;;;5059591;28;20057;-74
2023/11/04 10:35:03;;;;;;;0.80;0.70;;;18.00;75.20;;;;;;5077951;28;20033;-73
2023/11/04 10:37:32;;;;;;;0.90;0.60;;;18.00;75.20;;;;;;5061422;28;20037;-73
2023/11/04 10:39:57;;;;;;;1.10;0.77;;;18.10;75.00;;;;;;5062368;28;20098;-73
2023/11/04 10:42:24;;;;;;;1.38;0.47;;;18.10;75.20;;;;;;5061675;28;20041;-74
2023/11/04 10:44:51;;;;;;;2.58;0.60;;;18.10;75.60;;;;;;5059671;28;20045;-74
2023/11/04 10:47:29;;;;;;;0.88;0.60;;;18.10;75.60;;;;;;5042832;28;20095;-74
2023/11/04 10:50:15;;;;;;;1.02;0.60;;;18.00;75.50;;;;;;5060420;28;20094;-74
2023/11/04 10:53:03;;;;;;;1.30;0.70;;;18.00;75.20;;;;;;5062169;28;20123;-74
2023/11/04 10:55:31;;;;;;;0.45;0.43;;;18.10;75.30;;;;;;5051863;28;20151;-73
2023/11/04 10:58:02;;;;;;;2.20;0.90;;;18.10;75.10;;;;;;5058665;28;20170;-74
2023/11/04 11:00:28;;;;;;;1.10;0.80;;;18.10;75.20;;;;;;5061369;28;20127;-74
2023/11/04 11:02:54;;;;;;;0.50;0.50;;;18.10;75.40;;;;;;5045836;28;20178;-73
2023/11/04 11:05:24;;;;;;;1.40;0.77;;;18.00;75.40;;;;;;5063370;28;20501;-73
2023/11/04 11:07:49;;;;;;;0.90;0.60;;;18.00;75.40;;;;;;5056901;28;20462;-74
2023/11/04 11:10:21;;;;;;;0.90;0.68;;;18.00;75.30;;;;;;5059027;28;20517;-75
2023/11/04 11:13:05;;;;;;;1.00;0.70;;;18.00;75.20;;;;;;5061824;28;20037;-74
2023/11/04 11:15:31;;;;;;;0.60;0.50;;;18.00;75.20;;;;;;5060208;28;20044;-73
2023/11/04 11:17:59;;;;;;;1.23;0.52;;;18.00;75.10;;;;;;5045460;28;20084;-74
2023/11/04 11:20:35;;;;;;;0.82;0.60;;;18.00;75.20;;;;;;5044471;28;20040;-74
2023/11/04 11:23:04;;;;;;;1.08;0.60;;;18.10;75.00;;;;;;5057288;28;20588;-73
2023/11/04 11:25:36;;;;;;;1.67;0.60;;;18.00;74.90;;;;;;5061024;28;20074;-73
2023/11/04 11:28:04;;;;;;;1.38;0.60;;;18.00;75.20;;;;;;5059305;28;20036;-74
2023/11/04 11:30:40;;;;;;;0.52;0.30;;;18.00;75.40;;;;;;5091274;28;20036;-73
2023/11/04 11:33:09;;;;;;;1.10;0.70;;;18.00;75.40;;;;;;5057675;28;20140;-73
2023/11/04 11:35:54;;;;;;;0.77;0.52;;;18.00;75.50;;;;;;5036157;28;20131;-73
2023/11/04 11:38:20;;;;;;;2.58;0.88;;;18.00;75.60;;;;;;5051924;28;20044;-73
2023/11/04 11:40:47;;;;;;;1.20;0.43;;;18.10;75.70;;;;;;5061448;28;20049;-75
2023/11/04 11:43:12;;;;;;;0.65;0.57;;;18.10;76.20;;;;;;5060446;28;20053;-76
2023/11/04 11:45:39;;;;;;;1.58;0.73;;;18.10;75.70;;;;;;5062231;28;20048;-75
2023/11/04 11:48:05;;;;;;;0.70;0.63;;;18.10;76.20;;;;;;5061368;28;20045;-74
2023/11/04 11:50:31;;;;;;;1.27;0.60;;;18.10;75.50;;;;;;5059826;28;20036;-75
2023/11/04 11:52:57;;;;;;;1.23;0.57;;;18.10;75.70;;;;;;5061739;28;20036;-75
2023/11/04 11:55:22;;;;;;;1.30;0.73;;;18.10;75.60;;;;;;5060365;28;20041;-75
2023/11/04 11:57:51;;;;;;;1.10;1.00;;;18.10;75.60;;;;;;5063053;28;20033;-76
2023/11/04 12:00:16;;;;;;;1.35;0.68;;;18.10;75.80;;;;;;5058993;28;20410;-74
2023/11/04 12:02:42;;;;;;;1.05;0.75;;;18.10;75.70;;;;;;5058490;28;20040;-76
2023/11/04 12:05:09;;;;;;;0.85;0.60;;;18.20;75.40;;;;;;5043277;28;20048;-77
2023/11/04 12:07:35;;;;;;;1.73;0.63;;;18.10;76.40;;;;;;5057193;28;20771;-76
2023/11/04 12:10:01;;;;;;;1.35;1.05;;;18.10;75.70;;;;;;5061565;28;20047;-76
2023/11/04 12:12:26;;;;;;;0.88;0.70;;;18.10;76.60;;;;;;5063138;28;20075;-76
2023/11/04 12:15:00;;;;;;;0.85;0.70;;;18.10;76.60;;;;;;5057895;28;20060;-76
2023/11/04 12:17:25;;;;;;;1.23;0.47;;;18.10;76.10;;;;;;5064533;28;20063;-76
2023/11/04 12:19:51;;;;;;;1.88;1.00;;;18.10;76.40;;;;;;5057916;28;20511;-76
2023/11/04 12:22:17;;;;;;;1.55;0.68;;;18.10;74.60;;;;;;5064080;28;20414;-76
2023/11/04 12:24:42;;;;;;;1.63;0.60;;;18.10;74.30;;;;;;5045001;28;20183;-76
2023/11/04 12:27:08;;;;;;;1.40;0.57;;;18.10;74.00;;;;;;5060753;28;20071;-75
2023/11/04 12:29:38;;;;;;;0.93;0.77;;;18.10;75.00;;;;;;5066241;28;20047;-75
2023/11/04 12:32:04;;;;;;;1.58;0.70;;;18.20;76.80;;;;;;5056569;28;20079;-76
2023/11/04 12:34:29;;;;;;;1.23;0.70;;;18.20;76.10;;;;;;5051377;28;20033;-75
2023/11/04 12:36:55;;;;;;;0.82;0.50;;;18.20;75.80;;;;;;4709213;28;10000175;-76
2023/11/04 12:39:21;;;;;;;1.27;1.05;;;18.30;75.60;;;;;;5058397;28;20056;-74
2023/11/04 12:41:47;;;;;;;0.90;0.70;;;18.20;75.90;;;;;;5053337;28;20036;-77
2023/11/04 12:44:13;;;;;;;1.73;0.68;;;18.20;75.70;;;;;;5060073;28;20522;-77